sensor_id;sensor_type;location;lat;lon;timestamp;pressure;altitude;pressure_sealevel;temperature
43292;BMP280;28754;47.700;7.924;2023-02-11T00:00:55;93011.63;;;5.09
43292;BMP280;28754;47.700;7.924;2023-02-11T00:03:41;92996.56;;;5.08
43292;BMP280;28754;47.700;7.924;2023-02-11T00:06:30;92989.13;;;5.06
43292;BMP280;28754;47.700;7.924;2023-02-11T00:09:17;92989.50;;;5.03
43292;BMP280;28754;47.700;7.924;2023-02-11T00:12:04;92989.50;;;5.03
43292;BMP280;28754;47.700;7.924;2023-02-11T00:14:50;92985.81;;;5.06
43292;BMP280;28754;47.700;7.924;2023-02-11T00:17:37;92989.50;;;5.03
43292;BMP280;28754;47.700;7.924;2023-02-11T00:20:24;92989.09;;;5.00
43292;BMP280;28754;47.700;7.924;2023-02-11T00:23:11;92980.69;;;4.99
43292;BMP280;28754;47.700;7.924;2023-02-11T00:25:57;92985.94;;;4.98
43292;BMP280;28754;47.700;7.924;2023-02-11T00:28:45;92977.94;;;4.94
43292;BMP280;28754;47.700;7.924;2023-02-11T00:31:33;92980.09;;;4.97
43292;BMP280;28754;47.700;7.924;2023-02-11T00:34:20;92983.97;;;4.93
43292;BMP280;28754;47.700;7.924;2023-02-11T00:37:06;92979.28;;;4.90
43292;BMP280;28754;47.700;7.924;2023-02-11T00:39:53;92975.97;;;4.90
43292;BMP280;28754;47.700;7.924;2023-02-11T00:42:41;92975.34;;;4.88
43292;BMP280;28754;47.700;7.924;2023-02-11T00:45:27;92979.44;;;4.89
43292;BMP280;28754;47.700;7.924;2023-02-11T00:48:16;92974.56;;;4.87
43292;BMP280;28754;47.700;7.924;2023-02-11T00:51:03;92962.66;;;4.88
43292;BMP280;28754;47.700;7.924;2023-02-11T00:53:49;92955.41;;;4.85
43292;BMP280;28754;47.700;7.924;2023-02-11T00:56:36;92953.06;;;4.83
43292;BMP280;28754;47.700;7.924;2023-02-11T00:59:23;92946.78;;;4.79
43292;BMP280;28754;47.700;7.924;2023-02-11T01:02:09;92946.97;;;4.78
43292;BMP280;28754;47.700;7.924;2023-02-11T01:04:56;92944.59;;;4.77
43292;BMP280;28754;47.700;7.924;2023-02-11T01:07:46;92940.53;;;4.76
43292;BMP280;28754;47.700;7.924;2023-02-11T01:10:32;92938.53;;;4.71
43292;BMP280;28754;47.700;7.924;2023-02-11T01:13:19;92952.59;;;4.74
43292;BMP280;28754;47.700;7.924;2023-02-11T01:16:09;92949.47;;;4.72
43292;BMP280;28754;47.700;7.924;2023-02-11T01:18:55;92948.25;;;4.68
43292;BMP280;28754;47.700;7.924;2023-02-11T01:21:44;92950.03;;;4.67
43292;BMP280;28754;47.700;7.924;2023-02-11T01:24:31;92937.50;;;4.66
43292;BMP280;28754;47.700;7.924;2023-02-11T01:27:18;92929.13;;;4.65
43292;BMP280;28754;47.700;7.924;2023-02-11T01:30:06;92924.59;;;4.61
43292;BMP280;28754;47.700;7.924;2023-02-11T01:32:54;92926.38;;;4.60
43292;BMP280;28754;47.700;7.924;2023-02-11T01:35:40;92929.84;;;4.59
43292;BMP280;28754;47.700;7.924;2023-02-11T01:38:27;92932.22;;;4.61
43292;BMP280;28754;47.700;7.924;2023-02-11T01:41:14;92923.06;;;4.60
43292;BMP280;28754;47.700;7.924;2023-02-11T01:44:38;92925.34;;;4.55
43292;BMP280;28754;47.700;7.924;2023-02-11T01:47:25;92918.09;;;4.52
43292;BMP280;28754;47.700;7.924;2023-02-11T01:50:12;92927.47;;;4.51
43292;BMP280;28754;47.700;7.924;2023-02-11T01:52:59;92929.81;;;4.53
43292;BMP280;28754;47.700;7.924;2023-02-11T01:56:07;92926.66;;;4.51
43292;BMP280;28754;47.700;7.924;2023-02-11T01:59:21;92908.91;;;4.51
43292;BMP280;28754;47.700;7.924;2023-02-11T02:02:12;92901.31;;;4.51
43292;BMP280;28754;47.700;7.924;2023-02-11T02:05:24;92905.00;;;4.48
43292;BMP280;28754;47.700;7.924;2023-02-11T02:08:23;92900.13;;;4.47
43292;BMP280;28754;47.700;7.924;2023-02-11T02:11:15;92901.25;;;4.44
43292;BMP280;28754;47.700;7.924;2023-02-11T02:14:02;92899.47;;;4.39
43292;BMP280;28754;47.700;7.924;2023-02-11T02:16:49;92910.97;;;4.35
43292;BMP280;28754;47.700;7.924;2023-02-11T02:20:37;92892.94;;;4.30
43292;BMP280;28754;47.700;7.924;2023-02-11T02:23:51;92897.63;;;4.26
43292;BMP280;28754;47.700;7.924;2023-02-11T02:33:41;92892.91;;;4.23
43292;BMP280;28754;47.700;7.924;2023-02-11T02:36:48;92891.94;;;4.24
43292;BMP280;28754;47.700;7.924;2023-02-11T02:39:38;92892.91;;;4.23
43292;BMP280;28754;47.700;7.924;2023-02-11T02:42:25;92889.97;;;4.20
43292;BMP280;28754;47.700;7.924;2023-02-11T02:45:13;92894.59;;;4.16
43292;BMP280;28754;47.700;7.924;2023-02-11T02:48:00;92893.66;;;4.17
43292;BMP280;28754;47.700;7.924;2023-02-11T02:50:48;92899.69;;;4.16
43292;BMP280;28754;47.700;7.924;2023-02-11T02:54:04;92886.06;;;4.17
43292;BMP280;28754;47.700;7.924;2023-02-11T03:00:36;92894.88;;;4.21
43292;BMP280;28754;47.700;7.924;2023-02-11T03:09:47;92899.94;;;4.21
43292;BMP280;28754;47.700;7.924;2023-02-11T03:12:37;92880.00;;;4.18
43292;BMP280;28754;47.700;7.924;2023-02-11T03:15:29;92874.75;;;4.20
43292;BMP280;28754;47.700;7.924;2023-02-11T03:18:21;92863.03;;;4.19
43292;BMP280;28754;47.700;7.924;2023-02-11T03:21:10;92853.69;;;4.19
43292;BMP280;28754;47.700;7.924;2023-02-11T03:24:09;92877.47;;;4.18
43292;BMP280;28754;47.700;7.924;2023-02-11T03:27:26;92880.38;;;4.15
43292;BMP280;28754;47.700;7.924;2023-02-11T03:30:25;92858.72;;;4.13
43292;BMP280;28754;47.700;7.924;2023-02-11T03:33:31;92866.31;;;4.13
43292;BMP280;28754;47.700;7.924;2023-02-11T03:36:37;92878.19;;;4.12
43292;BMP280;28754;47.700;7.924;2023-02-11T03:39:40;92864.91;;;4.10
43292;BMP280;28754;47.700;7.924;2023-02-11T03:42:39;92861.19;;;4.07
43292;BMP280;28754;47.700;7.924;2023-02-11T03:45:27;92857.09;;;4.06
43292;BMP280;28754;47.700;7.924;2023-02-11T03:48:32;92853.94;;;4.04
43292;BMP280;28754;47.700;7.924;2023-02-11T03:51:22;92858.06;;;4.05
43292;BMP280;28754;47.700;7.924;2023-02-11T03:54:15;92855.88;;;4.02
43292;BMP280;28754;47.700;7.924;2023-02-11T03:57:04;92849.25;;;4.01
43292;BMP280;28754;47.700;7.924;2023-02-11T03:59:58;92851.00;;;4.00
43292;BMP280;28754;47.700;7.924;2023-02-11T04:02:45;92847.31;;;4.03
43292;BMP280;28754;47.700;7.924;2023-02-11T04:05:31;92861.56;;;4.04
43292;BMP280;28754;47.700;7.924;2023-02-11T04:08:19;92841.47;;;4.02
43292;BMP280;28754;47.700;7.924;2023-02-11T04:11:06;92842.25;;;4.03
43292;BMP280;28754;47.700;7.924;2023-02-11T04:13:52;92838.34;;;4.00
43292;BMP280;28754;47.700;7.924;2023-02-11T04:16:39;92844.75;;;3.96
43292;BMP280;28754;47.700;7.924;2023-02-11T04:19:26;92840.81;;;3.94
43292;BMP280;28754;47.700;7.924;2023-02-11T04:22:12;92852.09;;;3.91
43292;BMP280;28754;47.700;7.924;2023-02-11T04:24:59;92867.66;;;3.88
43292;BMP280;28754;47.700;7.924;2023-02-11T04:27:46;92854.56;;;3.85
43292;BMP280;28754;47.700;7.924;2023-02-11T04:30:32;92850.84;;;3.81
43292;BMP280;28754;47.700;7.924;2023-02-11T04:33:19;92873.06;;;3.79
43292;BMP280;28754;47.700;7.924;2023-02-11T04:36:06;92846.69;;;3.74
43292;BMP280;28754;47.700;7.924;2023-02-11T04:38:53;92830.69;;;3.73
43292;BMP280;28754;47.700;7.924;2023-02-11T04:41:40;92847.47;;;3.74
43292;BMP280;28754;47.700;7.924;2023-02-11T04:44:27;92861.88;;;3.74
43292;BMP280;28754;47.700;7.924;2023-02-11T04:47:13;92855.06;;;3.74
43292;BMP280;28754;47.700;7.924;2023-02-11T04:50:00;92852.53;;;3.74
43292;BMP280;28754;47.700;7.924;2023-02-11T04:52:47;92855.44;;;3.71
43292;BMP280;28754;47.700;7.924;2023-02-11T04:55:34;92838.69;;;3.70
43292;BMP280;28754;47.700;7.924;2023-02-11T04:58:20;92853.28;;;3.68
43292;BMP280;28754;47.700;7.924;2023-02-11T05:01:10;92845.66;;;3.68
43292;BMP280;28754;47.700;7.924;2023-02-11T05:03:57;92845.25;;;3.65
43292;BMP280;28754;47.700;7.924;2023-02-11T05:06:44;92851.28;;;3.64
43292;BMP280;28754;47.700;7.924;2023-02-11T05:09:31;92861.59;;;3.62
43292;BMP280;28754;47.700;7.924;2023-02-11T05:12:17;92855.31;;;3.58
43292;BMP280;28754;47.700;7.924;2023-02-11T05:15:04;92855.31;;;3.58
43292;BMP280;28754;47.700;7.924;2023-02-11T05:17:52;92847.09;;;3.56
43292;BMP280;28754;47.700;7.924;2023-02-11T05:20:40;92849.47;;;3.58
43292;BMP280;28754;47.700;7.924;2023-02-11T05:23:27;92852.78;;;3.58
43292;BMP280;28754;47.700;7.924;2023-02-11T05:26:14;92850.25;;;3.58
43292;BMP280;28754;47.700;7.924;2023-02-11T05:29:00;92858.44;;;3.60
43292;BMP280;28754;47.700;7.924;2023-02-11T05:31:47;92878.72;;;3.60
43292;BMP280;28754;47.700;7.924;2023-02-11T05:34:35;92866.66;;;3.62
43292;BMP280;28754;47.700;7.924;2023-02-11T05:37:22;92869.19;;;3.62
43292;BMP280;28754;47.700;7.924;2023-02-11T05:40:09;92869.34;;;3.61
43292;BMP280;28754;47.700;7.924;2023-02-11T05:42:56;92873.03;;;3.58
43292;BMP280;28754;47.700;7.924;2023-02-11T05:45:42;92877.50;;;3.56
43292;BMP280;28754;47.700;7.924;2023-02-11T05:48:29;92903.19;;;3.53
43292;BMP280;28754;47.700;7.924;2023-02-11T05:51:16;92867.75;;;3.53
43292;BMP280;28754;47.700;7.924;2023-02-11T05:54:03;92879.63;;;3.53
43292;BMP280;28754;47.700;7.924;2023-02-11T05:56:50;92883.22;;;3.44
43292;BMP280;28754;47.700;7.924;2023-02-11T05:59:37;92860.63;;;3.42
43292;BMP280;28754;47.700;7.924;2023-02-11T06:02:24;92881.28;;;3.46
43292;BMP280;28754;47.700;7.924;2023-02-11T06:05:11;92886.00;;;3.49
43292;BMP280;28754;47.700;7.924;2023-02-11T06:07:58;92882.31;;;3.51
43292;BMP280;28754;47.700;7.924;2023-02-11T06:10:45;92878.81;;;3.52
43292;BMP280;28754;47.700;7.924;2023-02-11T06:13:34;92891.47;;;3.52
43292;BMP280;28754;47.700;7.924;2023-02-11T06:16:21;92856.84;;;3.53
43292;BMP280;28754;47.700;7.924;2023-02-11T06:19:08;92865.97;;;3.54
43292;BMP280;28754;47.700;7.924;2023-02-11T06:21:55;92865.00;;;3.55
43292;BMP280;28754;47.700;7.924;2023-02-11T06:24:42;92868.69;;;3.52
43292;BMP280;28754;47.700;7.924;2023-02-11T06:27:29;92859.81;;;3.42
43292;BMP280;28754;47.700;7.924;2023-02-11T06:30:16;92884.13;;;3.37
43292;BMP280;28754;47.700;7.924;2023-02-11T06:33:03;92880.97;;;3.35
43292;BMP280;28754;47.700;7.924;2023-02-11T06:35:50;92867.94;;;3.38
43292;BMP280;28754;47.700;7.924;2023-02-11T06:38:36;92867.59;;;3.41
43292;BMP280;28754;47.700;7.924;2023-02-11T06:41:23;92875.53;;;3.38
43292;BMP280;28754;47.700;7.924;2023-02-11T06:44:10;92865.63;;;3.36
43292;BMP280;28754;47.700;7.924;2023-02-11T06:46:57;92871.56;;;3.29
43292;BMP280;28754;47.700;7.924;2023-02-11T06:49:43;92877.59;;;3.28
43292;BMP280;28754;47.700;7.924;2023-02-11T06:52:31;92878.53;;;3.27
43292;BMP280;28754;47.700;7.924;2023-02-11T06:55:18;92877.78;;;3.26
43292;BMP280;28754;47.700;7.924;2023-02-11T06:58:05;92873.38;;;3.35
43292;BMP280;28754;47.700;7.924;2023-02-11T07:00:52;92872.13;;;3.45
43292;BMP280;28754;47.700;7.924;2023-02-11T07:03:41;92878.81;;;3.52
43292;BMP280;28754;47.700;7.924;2023-02-11T07:06:28;92882.34;;;3.72
43292;BMP280;28754;47.700;7.924;2023-02-11T07:09:15;92871.59;;;3.91
43292;BMP280;28754;47.700;7.924;2023-02-11T07:12:02;92881.44;;;4.27
43292;BMP280;28754;47.700;7.924;2023-02-11T07:14:49;92889.81;;;4.55
43292;BMP280;28754;47.700;7.924;2023-02-11T07:17:36;92884.44;;;5.04
43292;BMP280;28754;47.700;7.924;2023-02-11T07:20:22;92882.41;;;5.86
43292;BMP280;28754;47.700;7.924;2023-02-11T07:23:09;92861.81;;;6.71
43292;BMP280;28754;47.700;7.924;2023-02-11T07:25:56;92861.38;;;7.49
43292;BMP280;28754;47.700;7.924;2023-02-11T07:28:44;92858.19;;;8.21
43292;BMP280;28754;47.700;7.924;2023-02-11T07:31:31;92847.47;;;8.79
43292;BMP280;28754;47.700;7.924;2023-02-11T07:34:18;92834.88;;;9.19
43292;BMP280;28754;47.700;7.924;2023-02-11T07:37:05;92847.06;;;9.53
43292;BMP280;28754;47.700;7.924;2023-02-11T07:39:51;92842.28;;;10.03
43292;BMP280;28754;47.700;7.924;2023-02-11T07:42:38;92844.72;;;10.61
43292;BMP280;28754;47.700;7.924;2023-02-11T07:45:27;92833.91;;;10.93
43292;BMP280;28754;47.700;7.924;2023-02-11T07:48:14;92831.06;;;11.29
43292;BMP280;28754;47.700;7.924;2023-02-11T07:51:19;92839.03;;;11.66
43292;BMP280;28754;47.700;7.924;2023-02-11T07:54:07;92834.34;;;11.01
43292;BMP280;28754;47.700;7.924;2023-02-11T07:56:54;92829.97;;;10.23
43292;BMP280;28754;47.700;7.924;2023-02-11T07:59:46;92845.34;;;9.47
43292;BMP280;28754;47.700;7.924;2023-02-11T08:02:42;92858.78;;;8.89
43292;BMP280;28754;47.700;7.924;2023-02-11T08:05:29;92842.63;;;8.53
43292;BMP280;28754;47.700;7.924;2023-02-11T08:08:16;92854.56;;;8.35
43292;BMP280;28754;47.700;7.924;2023-02-11T08:11:16;92833.34;;;8.10
43292;BMP280;28754;47.700;7.924;2023-02-11T08:14:17;92856.28;;;8.17
43292;BMP280;28754;47.700;7.924;2023-02-11T08:17:05;92867.22;;;8.23
43292;BMP280;28754;47.700;7.924;2023-02-11T08:19:52;92855.88;;;8.86
43292;BMP280;28754;47.700;7.924;2023-02-11T08:22:42;92861.22;;;9.66
43292;BMP280;28754;47.700;7.924;2023-02-11T08:25:36;92847.59;;;10.42
43292;BMP280;28754;47.700;7.924;2023-02-11T08:28:26;92833.59;;;10.15
43292;BMP280;28754;47.700;7.924;2023-02-11T08:31:20;92846.81;;;9.72
43292;BMP280;28754;47.700;7.924;2023-02-11T08:34:07;92843.25;;;9.26
43292;BMP280;28754;47.700;7.924;2023-02-11T08:36:56;92852.56;;;9.21
43292;BMP280;28754;47.700;7.924;2023-02-11T08:39:43;92851.31;;;9.58
43292;BMP280;28754;47.700;7.924;2023-02-11T08:42:30;92852.84;;;9.77
43292;BMP280;28754;47.700;7.924;2023-02-11T08:45:16;92863.78;;;9.66
43292;BMP280;28754;47.700;7.924;2023-02-11T08:48:03;92869.22;;;9.41
43292;BMP280;28754;47.700;7.924;2023-02-11T08:50:50;92853.69;;;9.24
43292;BMP280;28754;47.700;7.924;2023-02-11T08:53:38;92861.44;;;9.18
43292;BMP280;28754;47.700;7.924;2023-02-11T08:56:26;92847.84;;;9.53
43292;BMP280;28754;47.700;7.924;2023-02-11T08:59:13;92862.63;;;9.80
43292;BMP280;28754;47.700;7.924;2023-02-11T09:02:00;92858.81;;;10.29
43292;BMP280;28754;47.700;7.924;2023-02-11T09:04:47;92859.63;;;10.64
43292;BMP280;28754;47.700;7.924;2023-02-11T09:07:49;92866.09;;;10.66
43292;BMP280;28754;47.700;7.924;2023-02-11T09:10:37;92865.16;;;10.27
43292;BMP280;28754;47.700;7.924;2023-02-11T09:13:24;92849.56;;;9.88
43292;BMP280;28754;47.700;7.924;2023-02-11T09:16:41;92861.97;;;9.56
43292;BMP280;28754;47.700;7.924;2023-02-11T09:19:32;92872.38;;;9.25
43292;BMP280;28754;47.700;7.924;2023-02-11T09:22:22;92867.81;;;9.09
43292;BMP280;28754;47.700;7.924;2023-02-11T09:25:09;92870.16;;;8.93
43292;BMP280;28754;47.700;7.924;2023-02-11T09:27:56;92866.50;;;8.83
43292;BMP280;28754;47.700;7.924;2023-02-11T09:30:44;92855.06;;;8.67
43292;BMP280;28754;47.700;7.924;2023-02-11T09:38:10;92869.22;;;8.46
43292;BMP280;28754;47.700;7.924;2023-02-11T09:45:56;92873.63;;;8.56
43292;BMP280;28754;47.700;7.924;2023-02-11T09:49:04;92878.19;;;8.72
43292;BMP280;28754;47.700;7.924;2023-02-11T10:06:54;92860.50;;;16.04
43292;BMP280;28754;47.700;7.924;2023-02-11T10:18:37;92850.13;;;19.20
43292;BMP280;28754;47.700;7.924;2023-02-11T10:24:47;92878.13;;;20.07
43292;BMP280;28754;47.700;7.924;2023-02-11T10:27:38;92866.13;;;20.29
43292;BMP280;28754;47.700;7.924;2023-02-11T10:31:22;92896.16;;;20.40
43292;BMP280;28754;47.700;7.924;2023-02-11T10:36:59;92864.56;;;20.69
43292;BMP280;28754;47.700;7.924;2023-02-11T10:40:33;92863.28;;;21.03
43292;BMP280;28754;47.700;7.924;2023-02-11T10:43:27;92877.06;;;21.35
43292;BMP280;28754;47.700;7.924;2023-02-11T10:46:23;92853.63;;;21.67
43292;BMP280;28754;47.700;7.924;2023-02-11T10:49:35;92866.88;;;21.84
43292;BMP280;28754;47.700;7.924;2023-02-11T10:52:25;92848.50;;;21.62
43292;BMP280;28754;47.700;7.924;2023-02-11T10:55:25;92866.91;;;21.52
43292;BMP280;28754;47.700;7.924;2023-02-11T10:58:46;92857.06;;;21.49
43292;BMP280;28754;47.700;7.924;2023-02-11T11:07:30;92853.84;;;22.24
43292;BMP280;28754;47.700;7.924;2023-02-11T11:13:23;92842.91;;;22.48
43292;BMP280;28754;47.700;7.924;2023-02-11T11:16:40;92840.28;;;22.83
43292;BMP280;28754;47.700;7.924;2023-02-11T11:29:38;92850.09;;;24.33
43292;BMP280;28754;47.700;7.924;2023-02-11T11:33:33;92836.22;;;24.24
43292;BMP280;28754;47.700;7.924;2023-02-11T11:40:27;92826.44;;;25.30
43292;BMP280;28754;47.700;7.924;2023-02-11T11:51:37;92819.81;;;24.57
43292;BMP280;28754;47.700;7.924;2023-02-11T11:54:37;92814.22;;;24.25
43292;BMP280;28754;47.700;7.924;2023-02-11T11:57:27;92812.75;;;24.19
43292;BMP280;28754;47.700;7.924;2023-02-11T12:00:35;92821.69;;;24.18
43292;BMP280;28754;47.700;7.924;2023-02-11T12:06:53;92823.50;;;24.56
43292;BMP280;28754;47.700;7.924;2023-02-11T12:26:21;92793.09;;;24.30
43292;BMP280;28754;47.700;7.924;2023-02-11T12:33:10;92806.44;;;25.01
43292;BMP280;28754;47.700;7.924;2023-02-11T12:40:08;92803.94;;;24.87
43292;BMP280;28754;47.700;7.924;2023-02-11T12:43:38;92789.75;;;24.47
43292;BMP280;28754;47.700;7.924;2023-02-11T12:46:48;92801.00;;;24.55
43292;BMP280;28754;47.700;7.924;2023-02-11T12:50:04;92801.00;;;24.64
43292;BMP280;28754;47.700;7.924;2023-02-11T12:56:35;92793.56;;;24.32
43292;BMP280;28754;47.700;7.924;2023-02-11T13:02:40;92791.63;;;24.08
43292;BMP280;28754;47.700;7.924;2023-02-11T13:06:21;92791.72;;;23.86
43292;BMP280;28754;47.700;7.924;2023-02-11T13:09:19;92806.53;;;23.99
43292;BMP280;28754;47.700;7.924;2023-02-11T13:12:13;92799.50;;;24.16
43292;BMP280;28754;47.700;7.924;2023-02-11T13:15:18;92792.22;;;24.43
43292;BMP280;28754;47.700;7.924;2023-02-11T13:18:29;92783.25;;;24.36
43292;BMP280;28754;47.700;7.924;2023-02-11T13:21:39;92786.66;;;23.89
43292;BMP280;28754;47.700;7.924;2023-02-11T13:24:47;92788.38;;;23.55
43292;BMP280;28754;47.700;7.924;2023-02-11T13:28:19;92788.09;;;23.13
43292;BMP280;28754;47.700;7.924;2023-02-11T13:31:10;92779.53;;;22.91
43292;BMP280;28754;47.700;7.924;2023-02-11T13:33:58;92776.34;;;22.81
43292;BMP280;28754;47.700;7.924;2023-02-11T13:36:54;92779.63;;;22.65
43292;BMP280;28754;47.700;7.924;2023-02-11T13:39:41;92780.94;;;22.62
43292;BMP280;28754;47.700;7.924;2023-02-11T13:42:30;92777.03;;;22.16
43292;BMP280;28754;47.700;7.924;2023-02-11T13:45:43;92783.41;;;21.84
43292;BMP280;28754;47.700;7.924;2023-02-11T13:48:36;92786.59;;;21.81
43292;BMP280;28754;47.700;7.924;2023-02-11T13:51:41;92786.19;;;21.87
43292;BMP280;28754;47.700;7.924;2023-02-11T13:54:38;92791.13;;;22.02
43292;BMP280;28754;47.700;7.924;2023-02-11T13:57:31;92784.94;;;22.11
43292;BMP280;28754;47.700;7.924;2023-02-11T14:03:35;92778.50;;;21.69
43292;BMP280;28754;47.700;7.924;2023-02-11T14:07:25;92780.50;;;21.45
43292;BMP280;28754;47.700;7.924;2023-02-11T14:16:34;92769.53;;;21.17
43292;BMP280;28754;47.700;7.924;2023-02-11T14:19:43;92760.19;;;20.84
43292;BMP280;28754;47.700;7.924;2023-02-11T14:22:47;92777.41;;;20.49
43292;BMP280;28754;47.700;7.924;2023-02-11T14:25:37;92772.88;;;20.18
43292;BMP280;28754;47.700;7.924;2023-02-11T14:28:29;92774.03;;;19.89
43292;BMP280;28754;47.700;7.924;2023-02-11T14:32:01;92774.38;;;19.82
43292;BMP280;28754;47.700;7.924;2023-02-11T14:35:26;92751.72;;;19.88
43292;BMP280;28754;47.700;7.924;2023-02-11T14:38:29;92758.69;;;20.10
43292;BMP280;28754;47.700;7.924;2023-02-11T14:41:28;92747.06;;;20.39
43292;BMP280;28754;47.700;7.924;2023-02-11T14:44:29;92751.19;;;20.59
43292;BMP280;28754;47.700;7.924;2023-02-11T14:47:40;92763.75;;;20.75
43292;BMP280;28754;47.700;7.924;2023-02-11T14:50:42;92760.19;;;20.84
43292;BMP280;28754;47.700;7.924;2023-02-11T14:53:31;92753.03;;;20.76
43292;BMP280;28754;47.700;7.924;2023-02-11T14:56:25;92757.91;;;20.65
43292;BMP280;28754;47.700;7.924;2023-02-11T14:59:20;92768.97;;;20.38
43292;BMP280;28754;47.700;7.924;2023-02-11T15:02:24;92789.84;;;20.15
43292;BMP280;28754;47.700;7.924;2023-02-11T15:05:24;92742.78;;;20.12
43292;BMP280;28754;47.700;7.924;2023-02-11T15:08:14;92761.56;;;20.09
43292;BMP280;28754;47.700;7.924;2023-02-11T15:11:11;92751.53;;;20.02
43292;BMP280;28754;47.700;7.924;2023-02-11T15:14:08;92751.16;;;19.91
43292;BMP280;28754;47.700;7.924;2023-02-11T15:17:01;92758.31;;;19.57
43292;BMP280;28754;47.700;7.924;2023-02-11T15:19:53;92778.47;;;19.19
43292;BMP280;28754;47.700;7.924;2023-02-11T15:22:44;92756.34;;;18.98
43292;BMP280;28754;47.700;7.924;2023-02-11T15:25:32;92763.91;;;18.90
43292;BMP280;28754;47.700;7.924;2023-02-11T15:28:28;92763.91;;;18.90
43292;BMP280;28754;47.700;7.924;2023-02-11T15:31:18;92766.88;;;18.78
43292;BMP280;28754;47.700;7.924;2023-02-11T15:34:08;92763.84;;;18.66
43292;BMP280;28754;47.700;7.924;2023-02-11T15:37:02;92775.66;;;18.49
43292;BMP280;28754;47.700;7.924;2023-02-11T15:39:51;92791.06;;;18.36
43292;BMP280;28754;47.700;7.924;2023-02-11T15:42:38;92767.00;;;18.25
43292;BMP280;28754;47.700;7.924;2023-02-11T15:48:24;92777.63;;;17.76
43292;BMP280;28754;47.700;7.924;2023-02-11T15:51:33;92764.84;;;17.37
43292;BMP280;28754;47.700;7.924;2023-02-11T15:54:26;92763.63;;;17.05
43292;BMP280;28754;47.700;7.924;2023-02-11T15:57:24;92773.50;;;16.73
43292;BMP280;28754;47.700;7.924;2023-02-11T16:00:25;92768.31;;;16.48
43292;BMP280;28754;47.700;7.924;2023-02-11T16:03:24;92782.28;;;16.28
43292;BMP280;28754;47.700;7.924;2023-02-11T16:06:26;92780.13;;;16.10
43292;BMP280;28754;47.700;7.924;2023-02-11T16:09:33;92783.22;;;15.97
43292;BMP280;28754;47.700;7.924;2023-02-11T16:12:23;92784.78;;;15.98
43292;BMP280;28754;47.700;7.924;2023-02-11T16:16:04;92786.28;;;15.79
43292;BMP280;28754;47.700;7.924;2023-02-11T16:19:03;92786.75;;;15.62
43292;BMP280;28754;47.700;7.924;2023-02-11T16:21:52;92779.94;;;15.41
43292;BMP280;28754;47.700;7.924;2023-02-11T16:24:39;92784.25;;;15.21
43292;BMP280;28754;47.700;7.924;2023-02-11T16:27:38;92773.56;;;15.08
43292;BMP280;28754;47.700;7.924;2023-02-11T16:30:38;92780.69;;;14.91
43292;BMP280;28754;47.700;7.924;2023-02-11T16:33:25;92787.59;;;14.80
43292;BMP280;28754;47.700;7.924;2023-02-11T16:36:15;92785.13;;;14.59
43292;BMP280;28754;47.700;7.924;2023-02-11T16:39:02;92794.75;;;14.38
43292;BMP280;28754;47.700;7.924;2023-02-11T16:41:50;92792.56;;;14.25
43292;BMP280;28754;47.700;7.924;2023-02-11T16:44:40;92792.44;;;14.10
43292;BMP280;28754;47.700;7.924;2023-02-11T16:47:28;92781.66;;;13.92
43292;BMP280;28754;47.700;7.924;2023-02-11T16:50:24;92785.88;;;13.76
43292;BMP280;28754;47.700;7.924;2023-02-11T16:53:21;92794.75;;;13.64
43292;BMP280;28754;47.700;7.924;2023-02-11T16:56:15;92800.28;;;13.51
43292;BMP280;28754;47.700;7.924;2023-02-11T16:59:02;92805.78;;;13.38
43292;BMP280;28754;47.700;7.924;2023-02-11T17:01:51;92805.13;;;13.27
43292;BMP280;28754;47.700;7.924;2023-02-11T17:04:38;92809.84;;;13.13
43292;BMP280;28754;47.700;7.924;2023-02-11T17:07:26;92802.16;;;12.97
43292;BMP280;28754;47.700;7.924;2023-02-11T17:10:20;92805.59;;;12.86
43292;BMP280;28754;47.700;7.924;2023-02-11T17:13:07;92808.09;;;12.65
43292;BMP280;28754;47.700;7.924;2023-02-11T17:15:54;92807.31;;;12.65
43292;BMP280;28754;47.700;7.924;2023-02-11T17:18:41;92821.34;;;12.57
43292;BMP280;28754;47.700;7.924;2023-02-11T17:21:28;92815.03;;;12.48
43292;BMP280;28754;47.700;7.924;2023-02-11T17:24:18;92820.56;;;12.40
43292;BMP280;28754;47.700;7.924;2023-02-11T17:27:05;92818.84;;;12.30
43292;BMP280;28754;47.700;7.924;2023-02-11T17:29:52;92816.44;;;12.23
43292;BMP280;28754;47.700;7.924;2023-02-11T17:32:39;92829.44;;;12.17
43292;BMP280;28754;47.700;7.924;2023-02-11T17:35:26;92814.84;;;12.06
43292;BMP280;28754;47.700;7.924;2023-02-11T17:38:13;92822.47;;;12.01
43292;BMP280;28754;47.700;7.924;2023-02-11T17:41:01;92831.22;;;11.89
43292;BMP280;28754;47.700;7.924;2023-02-11T17:43:58;92831.91;;;11.84
43292;BMP280;28754;47.700;7.924;2023-02-11T17:46:45;92817.25;;;11.68
43292;BMP280;28754;47.700;7.924;2023-02-11T17:49:32;92833.19;;;11.70
43292;BMP280;28754;47.700;7.924;2023-02-11T17:52:18;92837.22;;;11.66
43292;BMP280;28754;47.700;7.924;2023-02-11T17:55:07;92839.72;;;11.62
43292;BMP280;28754;47.700;7.924;2023-02-11T17:57:56;92845.75;;;11.56
43292;BMP280;28754;47.700;7.924;2023-02-11T18:00:43;92841.72;;;11.48
43292;BMP280;28754;47.700;7.924;2023-02-11T18:03:30;92852.34;;;11.40
43292;BMP280;28754;47.700;7.924;2023-02-11T18:06:20;92844.22;;;11.32
43292;BMP280;28754;47.700;7.924;2023-02-11T18:09:08;92839.97;;;11.26
43292;BMP280;28754;47.700;7.924;2023-02-11T18:11:54;92847.59;;;11.21
43292;BMP280;28754;47.700;7.924;2023-02-11T18:14:41;92850.03;;;11.16
43292;BMP280;28754;47.700;7.924;2023-02-11T18:17:28;92850.16;;;11.10
43292;BMP280;28754;47.700;7.924;2023-02-11T18:20:15;92850.28;;;11.03
43292;BMP280;28754;47.700;7.924;2023-02-11T18:23:02;92856.88;;;10.99
43292;BMP280;28754;47.700;7.924;2023-02-11T18:25:49;92851.59;;;10.95
43292;BMP280;28754;47.700;7.924;2023-02-11T18:28:37;92845.16;;;10.92
43292;BMP280;28754;47.700;7.924;2023-02-11T18:31:25;92844.03;;;10.88
43292;BMP280;28754;47.700;7.924;2023-02-11T18:34:12;92850.63;;;10.84
43292;BMP280;28754;47.700;7.924;2023-02-11T18:36:58;92845.63;;;10.78
43292;BMP280;28754;47.700;7.924;2023-02-11T18:39:45;92848.03;;;10.73
43292;BMP280;28754;47.700;7.924;2023-02-11T18:42:32;92854.06;;;10.67
43292;BMP280;28754;47.700;7.924;2023-02-11T18:45:19;92846.25;;;10.62
43292;BMP280;28754;47.700;7.924;2023-02-11T18:48:06;92857.94;;;10.58
43292;BMP280;28754;47.700;7.924;2023-02-11T18:50:54;92854.72;;;10.51
43292;BMP280;28754;47.700;7.924;2023-02-11T18:53:41;92862.28;;;10.46
43292;BMP280;28754;47.700;7.924;2023-02-11T18:56:28;92857.28;;;10.40
43292;BMP280;28754;47.700;7.924;2023-02-11T18:59:15;92852.00;;;10.35